Time;durP1;ratioP1;P1;durP2;ratioP2;P2;SDS_P1;SDS_P2;PMS_P1;PMS_P2;Temp;Humidity;BMP_temperature;BMP_pressure;BME280_temperature;BME280_humidity;BME280_pressure;Samples;Min_cycle;Max_cycle;Signal;HPM_P1;HPM_P2
2023/07/07 00:00:03;;;;;;;0.47;0.45;;;13.70;99.90;;;;;;5091648;28;19989;-66
2023/07/07 00:02:29;;;;;;;0.20;0.20;;;13.60;99.90;;;;;;5092558;28;20040;-66
2023/07/07 00:04:55;;;;;;;0.25;0.25;;;13.60;99.90;;;;;;5093321;28;20488;-65
2023/07/07 00:07:21;;;;;;;0.20;0.20;;;13.70;99.90;;;;;;5092683;28;20087;-65
2023/07/07 00:09:46;;;;;;;;;;;13.70;99.90;;;;;;5093259;28;20056;-67
2023/07/07 00:12:13;;;;;;;0.20;0.20;;;13.80;99.90;;;;;;5093133;28;20645;-65
2023/07/07 00:14:39;;;;;;;0.20;0.20;;;13.50;99.90;;;;;;5091559;28;20051;-66
2023/07/07 00:17:05;;;;;;;0.10;0.10;;;13.60;99.90;;;;;;5092534;28;20052;-66
2023/07/07 00:19:36;;;;;;;;;;;13.70;99.90;;;;;;5093161;28;20043;-65
2023/07/07 00:22:05;;;;;;;0.40;0.40;;;13.50;99.90;;;;;;5092895;28;19924;-66
2023/07/07 00:24:32;;;;;;;0.20;0.20;;;13.40;99.90;;;;;;5092722;28;20484;-65
2023/07/07 00:26:58;;;;;;;0.50;0.50;;;13.20;99.90;;;;;;5091435;28;20052;-66
2023/07/07 00:29:24;;;;;;;0.13;0.13;;;13.20;99.90;;;;;;5092549;28;20067;-66
2023/07/07 00:31:50;;;;;;;0.20;0.20;;;13.40;99.90;;;;;;5091169;28;20052;-66
2023/07/07 00:34:15;;;;;;;;;;;13.10;99.90;;;;;;5093107;28;20044;-66
2023/07/07 00:36:41;;;;;;;0.20;0.20;;;13.10;99.90;;;;;;5092505;28;19920;-66
2023/07/07 00:39:07;;;;;;;0.55;0.55;;;13.30;99.90;;;;;;5092589;28;20121;-66
2023/07/07 00:41:32;;;;;;;0.30;0.30;;;13.50;99.90;;;;;;5091063;28;20138;-65
2023/07/07 00:44:08;;;;;;;0.55;0.55;;;13.10;99.90;;;;;;5090944;28;20056;-65
2023/07/07 00:46:35;;;;;;;0.40;0.40;;;13.20;99.90;;;;;;5092191;28;20067;-65
2023/07/07 00:49:04;;;;;;;0.65;0.63;;;13.10;99.90;;;;;;5092373;28;20062;-66
2023/07/07 00:51:59;;;;;;;0.20;0.20;;;13.20;99.90;;;;;;5092245;28;20155;-65
2023/07/07 00:54:29;;;;;;;0.38;0.38;;;13.10;99.90;;;;;;5092146;28;20415;-65
2023/07/07 00:56:55;;;;;;;0.20;0.20;;;13.00;99.90;;;;;;5092006;28;20058;-66
2023/07/07 00:59:48;;;;;;;0.40;0.40;;;12.70;99.90;;;;;;5092022;28;20048;-66
2023/07/07 01:02:24;;;;;;;0.20;0.20;;;13.30;99.90;;;;;;5088644;28;20059;-65
2023/07/07 01:04:53;;;;;;;0.28;0.28;;;13.10;99.90;;;;;;5091763;28;20068;-65
2023/07/07 01:07:28;;;;;;;0.65;0.65;;;13.00;99.90;;;;;;5091803;28;20504;-66
2023/07/07 01:09:53;;;;;;;0.20;0.20;;;12.40;99.90;;;;;;5092403;28;20040;-66
2023/07/07 01:12:19;;;;;;;0.32;0.32;;;12.60;99.90;;;;;;5092062;28;20349;-66
2023/07/07 01:14:47;;;;;;;0.38;0.38;;;12.60;99.90;;;;;;5124844;27;20051;-66
2023/07/07 01:17:13;;;;;;;0.47;0.47;;;12.80;99.90;;;;;;5091768;28;20055;-66
2023/07/07 01:20:12;;;;;;;0.43;0.43;;;12.70;99.90;;;;;;5090658;28;20074;-65
2023/07/07 01:22:50;;;;;;;0.20;0.20;;;12.60;99.90;;;;;;5091682;28;20131;-66
2023/07/07 01:25:37;;;;;;;0.50;0.45;;;12.50;99.90;;;;;;5090444;28;20055;-66
2023/07/07 01:28:08;;;;;;;;;;;12.50;99.90;;;;;;5091629;28;20063;-65
2023/07/07 01:30:55;;;;;;;0.20;0.20;;;12.50;99.90;;;;;;5091762;28;19924;-65
2023/07/07 01:33:25;;;;;;;0.68;0.68;;;12.50;99.90;;;;;;5091635;28;20040;-66
2023/07/07 01:35:51;;;;;;;0.30;0.30;;;12.50;99.90;;;;;;5091485;28;20089;-66
2023/07/07 01:38:29;;;;;;;;;;;12.50;99.90;;;;;;5091770;28;20092;-66
2023/07/07 01:41:31;;;;;;;0.40;0.40;;;12.30;99.90;;;;;;5091379;28;20014;-66
2023/07/07 01:44:10;;;;;;;0.20;0.20;;;11.90;99.90;;;;;;5070844;28;20078;-66
2023/07/07 01:46:43;;;;;;;0.95;0.50;;;12.10;99.90;;;;;;5089968;28;20113;-66
2023/07/07 01:49:15;;;;;;;0.45;0.45;;;12.30;99.90;;;;;;5091054;28;20051;-66
2023/07/07 01:51:59;;;;;;;1.02;0.95;;;12.40;99.90;;;;;;5091147;28;20048;-66
2023/07/07 01:54:30;;;;;;;0.30;0.30;;;12.10;99.90;;;;;;5091127;28;20101;-65
2023/07/07 01:56:56;;;;;;;1.58;1.10;;;12.10;99.90;;;;;;5091069;28;20087;-65
2023/07/07 01:59:23;;;;;;;0.20;0.20;;;12.20;99.90;;;;;;5091010;28;20054;-65
2023/07/07 02:01:50;;;;;;;0.40;0.40;;;12.40;99.90;;;;;;5091139;28;20457;-66
2023/07/07 02:04:15;;;;;;;;;;;12.00;99.90;;;;;;5091337;28;20060;-66
2023/07/07 02:06:41;;;;;;;0.40;0.40;;;11.90;99.90;;;;;;5091020;28;20006;-66
2023/07/07 02:09:07;;;;;;;0.40;0.40;;;11.80;99.90;;;;;;5090975;28;20056;-66
2023/07/07 02:11:33;;;;;;;0.93;0.93;;;12.00;99.90;;;;;;5090912;28;20044;-65
2023/07/07 02:13:58;;;;;;;1.00;0.40;;;12.00;99.90;;;;;;5090853;28;20040;-65
2023/07/07 02:16:24;;;;;;;0.47;0.47;;;12.00;99.90;;;;;;5090730;28;20573;-66
2023/07/07 02:18:51;;;;;;;0.40;0.40;;;12.40;99.90;;;;;;5091008;28;20055;-65
2023/07/07 02:21:18;;;;;;;0.20;0.20;;;11.90;99.90;;;;;;5089566;28;20056;-65
2023/07/07 02:23:44;;;;;;;0.47;0.47;;;11.80;99.90;;;;;;5090711;28;20438;-65
2023/07/07 02:26:11;;;;;;;0.30;0.30;;;12.00;99.90;;;;;;5090706;28;20055;-65
2023/07/07 02:28:37;;;;;;;0.50;0.50;;;11.50;99.90;;;;;;5090670;28;20067;-66
2023/07/07 02:31:03;;;;;;;0.30;0.30;;;12.00;99.90;;;;;;5090671;28;20185;-66
2023/07/07 02:33:31;;;;;;;0.50;0.50;;;11.90;99.90;;;;;;5090863;28;20041;-66
2023/07/07 02:36:02;;;;;;;0.68;0.68;;;12.20;99.90;;;;;;5090818;28;20443;-66
2023/07/07 02:38:29;;;;;;;0.60;0.60;;;11.70;99.90;;;;;;5090674;28;20052;-66
2023/07/07 02:40:55;;;;;;;1.05;0.80;;;11.90;99.90;;;;;;5093764;28;20040;-66
2023/07/07 02:43:21;;;;;;;0.20;0.20;;;11.80;99.90;;;;;;5094438;28;20036;-65
2023/07/07 02:45:46;;;;;;;0.35;0.35;;;12.10;99.90;;;;;;5094750;28;20048;-65
2023/07/07 02:48:13;;;;;;;0.22;0.22;;;11.80;99.90;;;;;;5093393;28;20078;-66
2023/07/07 02:50:39;;;;;;;0.30;0.30;;;11.50;99.90;;;;;;5094631;28;20036;-66
2023/07/07 02:53:05;;;;;;;;;;;11.80;99.90;;;;;;5094936;28;20036;-65
2023/07/07 02:55:31;;;;;;;0.50;0.40;;;11.70;99.90;;;;;;5093003;28;19920;-66
2023/07/07 02:57:57;;;;;;;0.43;0.40;;;11.70;99.90;;;;;;5094281;28;20048;-66
2023/07/07 03:00:24;;;;;;;0.55;0.55;;;11.70;99.90;;;;;;5094550;28;20062;-67
2023/07/07 03:02:50;;;;;;;0.60;0.60;;;11.50;99.90;;;;;;5094255;28;20423;-66
2023/07/07 03:05:16;;;;;;;0.32;0.32;;;11.30;99.90;;;;;;5094699;28;20079;-66
2023/07/07 03:07:42;;;;;;;0.30;0.30;;;11.40;99.90;;;;;;5094378;28;20055;-65
2023/07/07 03:10:09;;;;;;;0.40;0.40;;;11.30;99.90;;;;;;5094306;28;20052;-65
2023/07/07 03:12:34;;;;;;;0.47;0.47;;;11.70;99.90;;;;;;5094232;28;20147;-66
2023/07/07 03:15:00;;;;;;;0.32;0.32;;;11.40;99.90;;;;;;5094468;28;20269;-66
2023/07/07 03:17:30;;;;;;;0.32;0.32;;;11.50;99.90;;;;;;5094286;28;20061;-65
2023/07/07 03:19:56;;;;;;;0.30;0.30;;;11.30;99.90;;;;;;5094056;28;20040;-65
2023/07/07 03:22:21;;;;;;;0.38;0.38;;;13.40;99.90;;;;;;5092582;28;20372;-65
2023/07/07 03:24:51;;;;;;;0.82;0.82;;;11.50;99.90;;;;;;5093910;28;20077;-65
2023/07/07 03:27:16;;;;;;;0.70;0.70;;;11.50;99.90;;;;;;5093732;28;20062;-65
2023/07/07 03:29:42;;;;;;;0.82;0.80;;;11.20;99.90;;;;;;5093992;28;20462;-65
2023/07/07 03:32:08;;;;;;;0.20;0.20;;;11.40;99.90;;;;;;5093864;28;20097;-65
2023/07/07 03:34:36;;;;;;;0.40;0.40;;;11.40;99.90;;;;;;5093732;28;20058;-67
2023/07/07 03:37:02;;;;;;;0.35;0.35;;;11.20;99.90;;;;;;5093595;28;20047;-65
2023/07/07 03:39:28;;;;;;;0.60;0.60;;;11.50;99.90;;;;;;5092197;28;20048;-65
2023/07/07 03:41:54;;;;;;;0.30;0.30;;;11.60;99.90;;;;;;5093568;28;20545;-65
2023/07/07 03:44:19;;;;;;;0.63;0.60;;;11.80;99.90;;;;;;5093749;28;20036;-65
2023/07/07 03:46:45;;;;;;;4.18;0.50;;;11.70;99.90;;;;;;5093541;28;20051;-65
2023/07/07 03:49:11;;;;;;;0.88;0.82;;;11.90;99.90;;;;;;5093543;28;20404;-65
2023/07/07 03:51:37;;;;;;;0.20;0.20;;;11.40;99.90;;;;;;5092676;28;20112;-66
2023/07/07 03:54:03;;;;;;;;;;;11.80;99.90;;;;;;5093686;28;20048;-65
2023/07/07 03:56:29;;;;;;;0.40;0.40;;;11.70;99.90;;;;;;5093146;28;20298;-66
2023/07/07 03:58:55;;;;;;;0.47;0.47;;;11.70;99.90;;;;;;5093390;28;20040;-65
2023/07/07 04:01:20;;;;;;;0.30;0.30;;;11.70;99.90;;;;;;5093290;28;20127;-65
2023/07/07 04:03:47;;;;;;;0.52;0.52;;;11.70;99.90;;;;;;5091728;28;20059;-65
2023/07/07 04:06:13;;;;;;;;;;;11.70;99.90;;;;;;5093578;28;20150;-65
2023/07/07 04:08:39;;;;;;;0.20;0.20;;;11.80;99.90;;;;;;5091722;28;19920;-65
2023/07/07 04:11:09;;;;;;;0.38;0.38;;;11.70;99.90;;;;;;5092891;28;20055;-65
2023/07/07 04:13:37;;;;;;;0.90;0.52;;;11.70;99.90;;;;;;5092014;28;20051;-65
2023/07/07 04:16:08;;;;;;;0.30;0.30;;;11.80;99.90;;;;;;5091714;28;20056;-65
2023/07/07 04:18:34;;;;;;;2.60;0.73;;;11.50;99.90;;;;;;5092870;28;20050;-65
2023/07/07 04:21:05;;;;;;;0.65;0.57;;;11.50;99.90;;;;;;5092858;28;20136;-65
2023/07/07 04:23:31;;;;;;;0.60;0.60;;;12.00;99.90;;;;;;5092617;28;20173;-65
2023/07/07 04:25:57;;;;;;;0.57;0.55;;;11.90;99.90;;;;;;5092823;28;20055;-65
2023/07/07 04:28:23;;;;;;;0.38;0.38;;;11.80;99.90;;;;;;5091713;28;20062;-65
2023/07/07 04:30:53;;;;;;;0.30;0.30;;;11.80;99.90;;;;;;5091569;28;20052;-65
2023/07/07 04:33:20;;;;;;;0.75;0.75;;;12.00;99.90;;;;;;5092679;28;20047;-65
2023/07/07 04:35:51;;;;;;;0.47;0.47;;;12.00;99.90;;;;;;5091177;28;20443;-65
2023/07/07 04:38:18;;;;;;;0.20;0.20;;;12.10;99.90;;;;;;5091067;28;20048;-65
2023/07/07 04:40:45;;;;;;;0.32;0.32;;;12.30;99.90;;;;;;5092528;28;20083;-65
2023/07/07 04:43:11;;;;;;;0.22;0.22;;;12.20;99.90;;;;;;5092439;28;20040;-64
2023/07/07 04:45:36;;;;;;;0.28;0.28;;;12.40;99.90;;;;;;5092362;28;20482;-65
2023/07/07 04:48:02;;;;;;;0.28;0.28;;;12.30;99.90;;;;;;5092304;28;20132;-64
2023/07/07 04:50:28;;;;;;;0.30;0.30;;;12.40;99.90;;;;;;5091144;28;20051;-65
2023/07/07 04:52:54;;;;;;;0.20;0.20;;;12.50;99.90;;;;;;5092448;28;20040;-64
2023/07/07 04:55:20;;;;;;;2.28;2.08;;;12.60;99.90;;;;;;5092316;28;20051;-67
2023/07/07 04:57:45;;;;;;;2.05;0.80;;;12.50;99.90;;;;;;5091014;28;20567;-65
2023/07/07 05:00:12;;;;;;;1.67;0.65;;;12.80;99.90;;;;;;5091405;28;20052;-65
2023/07/07 05:02:38;;;;;;;0.52;0.47;;;12.50;99.90;;;;;;5091646;28;20387;-64
2023/07/07 05:05:04;;;;;;;1.05;0.88;;;13.00;99.90;;;;;;5091784;28;20047;-64
2023/07/07 05:07:30;;;;;;;;;;;13.10;99.90;;;;;;5091481;28;20050;-65
2023/07/07 05:09:56;;;;;;;1.23;0.95;;;12.80;99.90;;;;;;5092282;28;19924;-66
2023/07/07 05:12:21;;;;;;;0.50;0.50;;;12.90;99.90;;;;;;5092021;28;20052;-65
2023/07/07 05:14:47;;;;;;;0.73;0.73;;;13.10;99.90;;;;;;5091999;28;20517;-65
2023/07/07 05:17:13;;;;;;;0.40;0.40;;;13.30;99.90;;;;;;5092044;28;20396;-64
2023/07/07 05:19:38;;;;;;;0.85;0.52;;;13.20;99.90;;;;;;5091974;28;20329;-64
2023/07/07 05:22:04;;;;;;;0.70;0.70;;;13.40;99.90;;;;;;5092179;28;20048;-64
2023/07/07 05:24:30;;;;;;;3.35;1.20;;;13.70;99.90;;;;;;5090689;28;20040;-63
2023/07/07 05:26:56;;;;;;;0.52;0.52;;;13.60;99.90;;;;;;5091938;28;20044;-65
2023/07/07 05:29:22;;;;;;;0.68;0.68;;;13.60;99.90;;;;;;5091665;28;20491;-66
2023/07/07 05:31:48;;;;;;;1.60;1.50;;;13.80;99.90;;;;;;5091703;28;20112;-64
2023/07/07 05:34:14;;;;;;;0.70;0.70;;;14.00;99.90;;;;;;5091748;28;20480;-65
2023/07/07 05:36:40;;;;;;;0.50;0.50;;;14.30;99.90;;;;;;5091948;28;20047;-64
2023/07/07 05:39:06;;;;;;;7.95;1.60;;;14.30;99.90;;;;;;5091840;28;20044;-65
2023/07/07 05:41:32;;;;;;;0.68;0.68;;;14.50;99.90;;;;;;5091640;28;20507;-64
2023/07/07 05:43:58;;;;;;;1.30;0.77;;;14.80;99.90;;;;;;5091558;28;20036;-64
2023/07/07 05:46:24;;;;;;;1.45;1.35;;;15.00;99.90;;;;;;5091528;28;20376;-64
2023/07/07 05:48:49;;;;;;;;;;;15.10;99.90;;;;;;5090656;28;20073;-63
2023/07/07 05:51:18;;;;;;;0.60;0.60;;;15.10;99.90;;;;;;5090365;28;19928;-64
2023/07/07 05:53:44;;;;;;;0.85;0.85;;;15.00;99.90;;;;;;5091620;28;20373;-64
2023/07/07 05:56:14;;;;;;;0.98;0.90;;;15.50;99.90;;;;;;5091444;28;20043;-64
2023/07/07 05:58:39;;;;;;;0.75;0.75;;;15.60;99.90;;;;;;5091358;28;20044;-64
2023/07/07 06:01:05;;;;;;;0.73;0.73;;;15.80;99.90;;;;;;5091274;28;20050;-64
2023/07/07 06:03:31;;;;;;;;;;;15.60;99.90;;;;;;5088550;28;20091;-69
2023/07/07 06:05:57;;;;;;;0.52;0.52;;;15.30;99.90;;;;;;5088568;28;19920;-64
2023/07/07 06:08:23;;;;;;;0.40;0.40;;;16.00;99.90;;;;;;5090228;28;20062;-64
2023/07/07 06:10:49;;;;;;;;;;;15.80;99.90;;;;;;5090079;28;20143;-63
2023/07/07 06:13:23;;;;;;;0.50;0.50;;;16.20;99.90;;;;;;5089100;28;19975;-64
2023/07/07 06:15:52;;;;;;;0.68;0.68;;;16.30;99.90;;;;;;5089796;28;20040;-64
2023/07/07 06:18:19;;;;;;;0.75;0.75;;;16.40;99.90;;;;;;5089208;28;20434;-64
2023/07/07 06:20:49;;;;;;;0.40;0.40;;;16.70;99.90;;;;;;5089499;28;20048;-63
2023/07/07 06:23:15;;;;;;;0.60;0.60;;;16.40;99.90;;;;;;5090186;28;20052;-65
2023/07/07 06:25:40;;;;;;;;;;;16.80;99.90;;;;;;5089218;28;20151;-63
2023/07/07 06:28:06;;;;;;;0.70;0.70;;;17.10;99.90;;;;;;5090330;28;19928;-63
2023/07/07 06:30:32;;;;;;;;;;;17.40;99.90;;;;;;5089414;28;20040;-61
2023/07/07 06:32:58;;;;;;;1.13;0.75;;;17.10;99.90;;;;;;5089587;28;19988;-61
2023/07/07 06:35:27;;;;;;;1.10;1.00;;;17.10;99.90;;;;;;5089726;28;20048;-61
2023/07/07 06:37:53;;;;;;;2.83;0.70;;;17.30;99.90;;;;;;5090196;28;20044;-60
2023/07/07 06:40:18;;;;;;;;;;;17.70;99.90;;;;;;5090083;28;20412;-62
2023/07/07 06:42:44;;;;;;;0.75;0.75;;;17.40;99.90;;;;;;5088715;28;19920;-61
2023/07/07 06:45:10;;;;;;;;;;;17.40;99.90;;;;;;5090409;28;20055;-61
2023/07/07 06:47:35;;;;;;;1.13;0.93;;;18.10;99.90;;;;;;5090176;28;19923;-60
2023/07/07 06:50:01;;;;;;;;;;;18.10;99.90;;;;;;5089932;28;20508;-62
2023/07/07 06:52:27;;;;;;;0.63;0.50;;;18.00;99.90;;;;;;5090264;28;19928;-61
2023/07/07 06:54:54;;;;;;;0.98;0.60;;;17.80;99.90;;;;;;5090220;28;20444;-61
2023/07/07 06:57:21;;;;;;;0.75;0.75;;;18.30;99.90;;;;;;5089190;28;20069;-66
2023/07/07 06:59:46;;;;;;;0.55;0.55;;;18.70;99.90;;;;;;5078373;28;20048;-63
2023/07/07 07:02:12;;;;;;;;;;;18.40;99.90;;;;;;5076161;28;20047;-62
2023/07/07 07:04:39;;;;;;;0.73;0.73;;;18.80;99.90;;;;;;5087872;28;19930;-65
2023/07/07 07:07:07;;;;;;;0.60;0.60;;;18.80;99.90;;;;;;5088428;28;20036;-64
2023/07/07 07:09:33;;;;;;;0.10;0.10;;;19.10;99.90;;;;;;5087877;28;20434;-65
2023/07/07 07:11:58;;;;;;;0.55;0.55;;;18.80;99.90;;;;;;5088365;28;20040;-64
2023/07/07 07:14:24;;;;;;;0.60;0.60;;;18.80;99.90;;;;;;5089823;28;20125;-65
2023/07/07 07:16:50;;;;;;;0.57;0.57;;;19.40;99.90;;;;;;5089306;28;20048;-67
2023/07/07 07:19:15;;;;;;;0.47;0.47;;;19.40;99.90;;;;;;5087735;28;20050;-66
2023/07/07 07:21:41;;;;;;;0.52;0.52;;;19.30;99.90;;;;;;5089480;28;20089;-64
2023/07/07 07:24:07;;;;;;;0.40;0.40;;;19.40;99.90;;;;;;5089591;28;20075;-66
2023/07/07 07:26:32;;;;;;;0.57;0.47;;;19.50;99.90;;;;;;5088874;28;20040;-65
2023/07/07 07:28:58;;;;;;;0.75;0.75;;;19.60;99.90;;;;;;5092986;28;20063;-65
2023/07/07 07:31:24;;;;;;;0.52;0.52;;;19.50;99.90;;;;;;5092338;28;20101;-66
2023/07/07 07:33:52;;;;;;;0.10;0.10;;;19.90;99.90;;;;;;5092364;28;20044;-64
2023/07/07 07:36:18;;;;;;;0.43;0.30;;;20.00;99.90;;;;;;5093425;28;20099;-64
2023/07/07 07:38:44;;;;;;;0.40;0.40;;;20.20;99.90;;;;;;5092108;28;20127;-66
2023/07/07 07:41:10;;;;;;;0.25;0.25;;;20.30;99.90;;;;;;5092804;28;20119;-65
2023/07/07 07:43:35;;;;;;;0.57;0.57;;;20.10;99.90;;;;;;5092451;28;20461;-64
2023/07/07 07:46:01;;;;;;;0.63;0.52;;;20.60;99.90;;;;;;5093128;28;20048;-64
2023/07/07 07:48:27;;;;;;;0.73;0.73;;;20.60;99.90;;;;;;5092134;28;20044;-65
2023/07/07 07:50:52;;;;;;;0.30;0.30;;;20.90;99.90;;;;;;5092921;28;20048;-65
2023/07/07 07:53:19;;;;;;;1.55;0.80;;;20.60;99.90;;;;;;5092652;28;20039;-64
2023/07/07 07:55:45;;;;;;;0.90;0.63;;;21.00;99.90;;;;;;5092298;28;20087;-64
2023/07/07 07:58:11;;;;;;;0.75;0.40;;;20.80;99.90;;;;;;5091005;28;20109;-66
2023/07/07 08:00:36;;;;;;;0.63;0.50;;;20.90;99.90;;;;;;5092521;28;20507;-65
2023/07/07 08:03:02;;;;;;;0.30;0.30;;;21.00;99.90;;;;;;5091198;28;20056;-66
2023/07/07 08:05:28;;;;;;;0.25;0.25;;;21.30;99.90;;;;;;5092649;28;20059;-65
2023/07/07 08:07:54;;;;;;;0.43;0.43;;;21.10;99.90;;;;;;5092483;28;20118;-64
2023/07/07 08:10:19;;;;;;;0.40;0.40;;;21.10;99.90;;;;;;5092135;28;20151;-64
2023/07/07 08:12:45;;;;;;;0.30;0.30;;;21.10;99.90;;;;;;5092121;28;20044;-63
2023/07/07 08:15:12;;;;;;;0.28;0.28;;;21.40;99.90;;;;;;5079272;28;20151;-73
2023/07/07 08:17:37;;;;;;;0.20;0.20;;;21.60;99.90;;;;;;5076127;28;20048;-64
2023/07/07 08:20:05;;;;;;;0.32;0.32;;;21.90;99.90;;;;;;5089076;28;20048;-64
2023/07/07 08:22:31;;;;;;;0.25;0.25;;;22.00;99.90;;;;;;5089399;28;20052;-63
2023/07/07 08:24:58;;;;;;;0.20;0.20;;;21.80;99.90;;;;;;5087528;28;20442;-68
2023/07/07 08:27:26;;;;;;;0.10;0.10;;;22.30;99.90;;;;;;5089201;28;20101;-62
2023/07/07 08:29:52;;;;;;;0.10;0.10;;;21.80;99.90;;;;;;5089666;28;20059;-63
2023/07/07 08:32:21;;;;;;;0.00;0.00;;;22.30;99.90;;;;;;5090439;28;20059;-65
2023/07/07 08:34:52;;;;;;;0.10;0.10;;;22.50;99.90;;;;;;5087965;28;20056;-68
2023/07/07 08:37:19;;;;;;;0.38;0.38;;;22.20;99.90;;;;;;5072791;28;20044;-68
2023/07/07 08:39:47;;;;;;;0.63;0.63;;;22.30;99.90;;;;;;5089280;28;20052;-68
2023/07/07 08:42:39;;;;;;;0.20;0.20;;;23.00;99.90;;;;;;5090660;28;20051;-63
2023/07/07 08:45:17;;;;;;;0.20;0.20;;;22.40;99.90;;;;;;5088563;28;20449;-64
2023/07/07 08:47:55;;;;;;;1.85;0.30;;;22.80;99.90;;;;;;5089803;28;20588;-64
2023/07/07 08:50:26;;;;;;;0.22;0.22;;;23.20;99.90;;;;;;5070464;28;20052;-63
2023/07/07 08:52:58;;;;;;;0.63;0.63;;;25.00;99.90;;;;;;5076154;28;20040;-61
2023/07/07 08:55:47;;;;;;;0.30;0.30;;;22.80;99.90;;;;;;5089826;28;20048;-64
2023/07/07 08:58:38;;;;;;;1.17;1.08;;;23.30;99.90;;;;;;5089403;28;20143;-63
2023/07/07 09:01:25;;;;;;;0.52;0.30;;;23.40;99.90;;;;;;5090638;28;20054;-65
2023/07/07 09:04:17;;;;;;;0.40;0.40;;;23.20;99.90;;;;;;5088143;28;20052;-59
2023/07/07 09:07:01;;;;;;;0.38;0.38;;;23.70;99.90;;;;;;5091745;28;20415;-64
2023/07/07 09:10:01;;;;;;;0.15;0.15;;;23.60;99.90;;;;;;5084890;28;20086;-63
2023/07/07 09:12:41;;;;;;;0.20;0.20;;;23.70;99.90;;;;;;5091093;28;20407;-62
2023/07/07 09:15:35;;;;;;;1.55;0.85;;;23.90;99.90;;;;;;5090326;28;20519;-63
2023/07/07 09:18:47;;;;;;;0.57;0.57;;;24.10;99.90;;;;;;5089698;28;20574;-63
2023/07/07 09:21:28;;;;;;;0.15;0.15;;;24.00;99.90;;;;;;5089602;28;20090;-62
2023/07/07 09:23:58;;;;;;;0.08;0.08;;;24.40;99.90;;;;;;5089600;28;20040;-63
2023/07/07 09:26:34;;;;;;;0.17;0.17;;;24.30;99.90;;;;;;5090834;28;20047;-63
2023/07/07 09:29:06;;;;;;;0.25;0.25;;;24.40;99.90;;;;;;5090423;28;20496;-65
2023/07/07 09:31:39;;;;;;;2.20;0.40;;;24.40;99.90;;;;;;5089780;28;20084;-64
2023/07/07 09:34:09;;;;;;;0.35;0.35;;;24.60;99.90;;;;;;5090486;28;20035;-63
2023/07/07 09:36:46;;;;;;;0.20;0.20;;;25.00;99.90;;;;;;5090625;28;20052;-63
2023/07/07 09:39:36;;;;;;;0.20;0.20;;;24.70;99.90;;;;;;5087298;28;20044;-63
2023/07/07 09:42:32;;;;;;;0.10;0.10;;;24.40;99.90;;;;;;5090389;28;20058;-62
2023/07/07 09:45:17;;;;;;;0.60;0.40;;;24.80;99.90;;;;;;5096939;28;20090;-62
2023/07/07 09:47:57;;;;;;;0.55;0.35;;;25.00;99.90;;;;;;5110392;28;20474;-63
2023/07/07 09:50:32;;;;;;;0.20;0.20;;;25.00;99.90;;;;;;5095510;28;20132;-63
2023/07/07 09:53:16;;;;;;;0.10;0.10;;;24.80;99.90;;;;;;5088543;28;20094;-63
2023/07/07 09:55:42;;;;;;;0.55;0.55;;;25.00;99.90;;;;;;5087541;28;20142;-65
2023/07/07 09:58:51;;;;;;;0.75;0.52;;;25.50;99.90;;;;;;5088775;28;20052;-62
2023/07/07 10:01:17;;;;;;;1.08;0.95;;;25.10;99.90;;;;;;5067024;28;20139;-63
2023/07/07 10:03:48;;;;;;;0.28;0.28;;;25.20;99.90;;;;;;5086722;28;20071;-64
2023/07/07 10:06:39;;;;;;;0.52;0.20;;;25.10;99.90;;;;;;5090142;28;20134;-63
2023/07/07 10:09:11;;;;;;;0.93;0.30;;;25.60;99.90;;;;;;5090067;28;20044;-61
2023/07/07 10:11:39;;;;;;;0.77;0.28;;;25.50;99.90;;;;;;5090508;28;20164;-63
2023/07/07 10:14:06;;;;;;;0.70;0.43;;;25.60;99.90;;;;;;5090487;28;20036;-63
2023/07/07 10:16:32;;;;;;;0.03;0.03;;;25.30;99.90;;;;;;5090645;28;20036;-62
2023/07/07 10:19:08;;;;;;;0.55;0.40;;;25.40;99.90;;;;;;5090247;28;20079;-63
2023/07/07 10:21:34;;;;;;;0.20;0.20;;;25.30;99.90;;;;;;5090618;28;20094;-65
2023/07/07 10:24:01;;;;;;;0.13;0.13;;;26.00;99.90;;;;;;5089854;28;20040;-62
2023/07/07 10:26:26;;;;;;;0.60;0.60;;;25.90;99.90;;;;;;5090279;28;20040;-63
2023/07/07 10:28:57;;;;;;;0.40;0.40;;;25.70;99.90;;;;;;5090680;28;20051;-62
2023/07/07 10:31:24;;;;;;;0.20;0.20;;;26.10;99.90;;;;;;5090430;28;20064;-62
2023/07/07 10:33:55;;;;;;;1.13;1.02;;;25.90;99.90;;;;;;5090613;28;20048;-63
2023/07/07 10:36:28;;;;;;;0.10;0.10;;;26.00;99.90;;;;;;5085970;28;20036;-63
2023/07/07 10:38:55;;;;;;;0.20;0.20;;;26.30;99.90;;;;;;5089215;28;20484;-63
2023/07/07 10:41:22;;;;;;;0.03;0.03;;;26.00;99.90;;;;;;5089372;28;20491;-63
2023/07/07 10:43:47;;;;;;;0.10;0.10;;;26.20;99.90;;;;;;5089149;28;20094;-63
2023/07/07 10:46:13;;;;;;;0.20;0.20;;;26.40;99.90;;;;;;5089385;28;20036;-64
2023/07/07 10:48:48;;;;;;;0.05;0.05;;;26.20;99.90;;;;;;5089980;28;20044;-63
2023/07/07 10:51:31;;;;;;;0.10;0.10;;;25.90;99.90;;;;;;5089007;28;20476;-63
2023/07/07 10:54:06;;;;;;;0.52;0.43;;;26.40;99.90;;;;;;5089524;28;20055;-63
2023/07/07 10:56:44;;;;;;;0.47;0.47;;;26.40;99.90;;;;;;5089187;28;20581;-63
2023/07/07 10:59:29;;;;;;;0.52;0.28;;;26.50;99.90;;;;;;5089317;28;20066;-64
2023/07/07 11:02:19;;;;;;;0.10;0.10;;;26.70;99.90;;;;;;5086113;28;20137;-63
2023/07/07 11:04:44;;;;;;;0.20;0.20;;;26.50;99.90;;;;;;5092409;28;20055;-65
2023/07/07 11:07:16;;;;;;;0.13;0.13;;;26.70;99.90;;;;;;5092968;28;20052;-63
2023/07/07 11:10:07;;;;;;;0.55;0.55;;;26.60;99.90;;;;;;5092818;28;20048;-64
2023/07/07 11:12:43;;;;;;;0.20;0.20;;;26.70;99.90;;;;;;5092945;28;20057;-63
2023/07/07 11:15:27;;;;;;;0.38;0.30;;;26.80;99.90;;;;;;5093148;28;20058;-63
2023/07/07 11:18:06;;;;;;;0.13;0.13;;;27.20;99.90;;;;;;5093104;28;20491;-63
2023/07/07 11:20:56;;;;;;;0.25;0.25;;;27.30;99.90;;;;;;5093450;28;20496;-65
2023/07/07 11:23:46;;;;;;;0.00;0.00;;;27.20;99.90;;;;;;5091837;28;20430;-64
2023/07/07 11:26:23;;;;;;;0.17;0.17;;;27.30;99.90;;;;;;5093608;28;20056;-65
2023/07/07 11:29:11;;;;;;;0.40;0.40;;;27.40;99.90;;;;;;5093286;28;20059;-62
2023/07/07 11:32:10;;;;;;;0.63;0.20;;;27.30;99.90;;;;;;5093392;28;20052;-65
2023/07/07 11:34:36;;;;;;;0.25;0.25;;;27.20;99.90;;;;;;5093158;28;20066;-65
2023/07/07 11:37:19;;;;;;;0.28;0.20;;;27.60;99.90;;;;;;5092100;28;20044;-63
2023/07/07 11:40:05;;;;;;;0.20;0.20;;;27.40;99.90;;;;;;5092883;28;20052;-65
2023/07/07 11:42:58;;;;;;;0.28;0.15;;;27.50;99.90;;;;;;5093147;28;20422;-64
2023/07/07 11:45:37;;;;;;;0.15;0.15;;;27.10;99.90;;;;;;5093074;28;20056;-66
2023/07/07 11:48:35;;;;;;;0.10;0.10;;;27.50;99.90;;;;;;5093005;28;20504;-63
2023/07/07 11:51:26;;;;;;;0.38;0.38;;;27.40;99.90;;;;;;5092990;28;20048;-64
2023/07/07 11:54:00;;;;;;;0.13;0.13;;;27.60;99.90;;;;;;5092694;28;20040;-64
2023/07/07 11:57:02;;;;;;;0.20;0.20;;;27.30;99.90;;;;;;5092997;28;20047;-66
2023/07/07 12:00:10;;;;;;;0.25;0.25;;;27.60;99.90;;;;;;5093086;28;20048;-63
2023/07/07 12:02:47;;;;;;;0.30;0.30;;;27.20;99.90;;;;;;5091127;28;20100;-64
2023/07/07 12:05:18;;;;;;;0.10;0.10;;;27.50;99.90;;;;;;5092777;28;20040;-64
2023/07/07 12:07:52;;;;;;;0.10;0.10;;;27.60;99.90;;;;;;5092446;28;20165;-66
2023/07/07 12:10:31;;;;;;;0.20;0.20;;;27.40;99.90;;;;;;5092635;28;20051;-63
2023/07/07 12:13:05;;;;;;;0.17;0.17;;;27.20;99.90;;;;;;5092263;28;20055;-64
2023/07/07 12:15:38;;;;;;;0.52;0.40;;;27.30;99.90;;;;;;5092688;28;20054;-64
2023/07/07 12:18:30;;;;;;;0.10;0.10;;;27.70;99.90;;;;;;5092664;28;20578;-64
2023/07/07 12:21:20;;;;;;;0.05;0.05;;;27.80;99.90;;;;;;5092475;28;20052;-67
2023/07/07 12:24:19;;;;;;;1.48;0.85;;;27.70;99.90;;;;;;5092213;28;20063;-65
2023/07/07 12:26:51;;;;;;;1.45;0.70;;;27.70;99.90;;;;;;5088683;28;20524;-65
2023/07/07 12:29:17;;;;;;;0.00;0.00;;;27.70;99.90;;;;;;5090779;28;20106;-64
2023/07/07 12:31:45;;;;;;;0.30;0.30;;;27.70;99.90;;;;;;5092087;28;20127;-64
2023/07/07 12:34:47;;;;;;;0.50;0.30;;;27.80;99.90;;;;;;5091992;28;20052;-65
2023/07/07 12:37:23;;;;;;;0.03;0.00;;;27.90;99.90;;;;;;5084196;28;20526;-64
2023/07/07 12:40:12;;;;;;;;;;;28.00;99.90;;;;;;5092348;28;20433;-64
2023/07/07 12:42:40;;;;;;;0.17;0.17;;;28.10;99.90;;;;;;5085869;28;20330;-64
2023/07/07 12:45:15;;;;;;;0.00;0.00;;;27.80;99.90;;;;;;5091782;28;20059;-64
2023/07/07 12:47:41;;;;;;;0.10;0.10;;;28.20;99.90;;;;;;5090685;28;20048;-62
2023/07/07 12:50:27;;;;;;;0.30;0.28;;;28.30;99.90;;;;;;5090091;28;20139;-64
2023/07/07 12:52:58;;;;;;;0.45;0.45;;;27.90;99.90;;;;;;5090379;28;20459;-67
2023/07/07 12:55:28;;;;;;;0.05;0.05;;;27.90;99.00;;;;;;5091405;28;20085;-64
2023/07/07 12:58:05;;;;;;;0.40;0.40;;;26.70;99.90;;;;;;5091635;28;20048;-64
2023/07/07 13:00:41;;;;;;;0.47;0.47;;;27.90;99.90;;;;;;5091309;28;20074;-67
2023/07/07 13:03:09;;;;;;;0.55;0.43;;;27.80;99.90;;;;;;5091240;28;20048;-66
2023/07/07 13:05:44;;;;;;;0.05;0.05;;;28.20;99.10;;;;;;5091267;28;20051;-64
2023/07/07 13:08:09;;;;;;;0.20;0.20;;;28.10;98.80;;;;;;5090963;28;20097;-64
2023/07/07 13:10:41;;;;;;;0.30;0.30;;;28.30;98.40;;;;;;5091145;28;20138;-64
2023/07/07 13:13:24;;;;;;;0.85;0.20;;;28.20;99.90;;;;;;5090131;28;20059;-67